Time;durP1;ratioP1;P1;durP2;ratioP2;P2;SDS_P1;SDS_P2;PMS_P1;PMS_P2;Temp;Humidity;BMP_temperature;BMP_pressure;BME280_temperature;BME280_humidity;BME280_pressure;Samples;Min_cycle;Max_cycle;Signal;HPM_P1;HPM_P2
2022/05/15 00:02:33;;;;;;;13.43;5.27;;;;;;;10.89;100.00;102326.16;5014063;28;20554;-72
2022/05/15 00:04:59;;;;;;;14.97;6.13;;;;;;;10.73;100.00;102320.75;5016492;28;26625;-72
2022/05/15 00:07:24;;;;;;;14.97;5.83;;;;;;;10.17;100.00;102262.16;5013265;28;20909;-73
2022/05/15 00:09:50;;;;;;;15.93;7.33;;;;;;;10.11;100.00;102259.31;5017597;28;20638;-73
2022/05/15 00:12:16;;;;;;;14.73;7.90;;;;;;;10.02;100.00;102261.09;5018834;28;20208;-73
2022/05/15 00:14:43;;;;;;;17.90;7.87;;;;;;;10.13;100.00;102270.72;5021321;28;20310;-72
2022/05/15 00:17:08;;;;;;;14.97;6.87;;;;;;;10.50;100.00;102310.63;5016521;28;20512;-72
2022/05/15 00:19:34;;;;;;;20.17;11.50;;;;;;;10.60;100.00;102319.38;5017299;28;20931;-73
2022/05/15 00:22:00;;;;;;;32.73;17.17;;;;;;;10.59;100.00;102324.91;5013830;28;20220;-73
2022/05/15 00:24:28;;;;;;;26.43;16.20;;;;;;;10.25;100.00;102279.31;5022056;28;20208;-73
2022/05/15 00:26:54;;;;;;;29.50;14.90;;;;;;;10.46;100.00;102319.97;5001121;28;20454;-73
2022/05/15 00:29:20;;;;;;;25.73;14.00;;;;;;;10.62;100.00;102314.69;5023909;28;20513;-73
2022/05/15 00:31:45;;;;;;;23.40;13.90;;;;;;;10.40;100.00;102308.06;5016747;28;20463;-72
2022/05/15 00:34:11;;;;;;;18.97;11.00;;;;;;;9.89;100.00;102209.78;5018091;28;20194;-72
2022/05/15 00:36:36;;;;;;;16.83;9.93;;;;;;;9.86;100.00;102232.38;5017982;28;20295;-73
2022/05/15 00:39:04;;;;;;;15.80;8.07;;;;;;;9.92;100.00;102266.59;5020446;28;20669;-72
2022/05/15 00:41:29;;;;;;;17.20;7.00;;;;;;;10.15;100.00;102330.38;5018955;28;20212;-73
2022/05/15 00:43:58;;;;;;;15.13;7.47;;;;;;;9.73;100.00;102240.84;5018227;28;20505;-72
2022/05/15 00:46:30;;;;;;;16.50;8.37;;;;;;;9.96;100.00;102285.88;5016903;28;20278;-73
2022/05/15 00:48:58;;;;;;;14.17;6.70;;;;;;;10.37;100.00;102321.78;5016551;28;20443;-72
2022/05/15 00:51:29;;;;;;;12.70;6.17;;;;;;;10.38;100.00;102323.47;5021514;28;20466;-72
2022/05/15 00:54:03;;;;;;;14.03;6.30;;;;;;;10.35;100.00;102323.78;5016854;28;20474;-72
2022/05/15 00:56:33;;;;;;;13.43;5.87;;;;;;;10.22;100.00;102318.00;5018116;28;20909;-72
2022/05/15 00:59:06;;;;;;;13.53;5.77;;;;;;;9.93;100.00;102291.56;5017860;28;20446;-73
2022/05/15 01:01:31;;;;;;;18.90;6.40;;;;;;;9.84;100.00;102301.38;5002000;28;20806;-72
2022/05/15 01:03:56;;;;;;;11.73;5.50;;;;;;;9.84;100.00;102265.72;5020504;28;20489;-72
2022/05/15 01:06:22;;;;;;;11.60;5.97;;;;;;;10.28;100.00;102321.94;5016154;28;20547;-72
2022/05/15 01:08:48;;;;;;;17.43;7.07;;;;;;;10.39;100.00;102319.81;5018602;28;20657;-73
2022/05/15 01:11:18;;;;;;;11.77;5.80;;;;;;;9.92;100.00;102300.56;5019335;28;20290;-72
2022/05/15 01:13:45;;;;;;;13.43;5.97;;;;;;;9.73;100.00;102299.81;4997753;28;20184;-72
2022/05/15 01:16:11;;;;;;;13.13;5.60;;;;;;;9.95;100.00;102313.66;5015148;28;20496;-72
2022/05/15 01:18:38;;;;;;;16.37;6.70;;;;;;;10.06;100.00;102321.44;5020480;28;20541;-72
2022/05/15 01:21:22;;;;;;;14.50;6.10;;;;;;;10.00;100.00;102323.91;5017123;28;20482;-73
2022/05/15 01:23:48;;;;;;;11.77;5.33;;;;;;;9.94;100.00;102310.16;5016621;28;20981;-72
2022/05/15 01:26:14;;;;;;;11.10;5.43;;;;;;;9.85;100.00;102304.91;5019511;28;20502;-72
2022/05/15 01:28:39;;;;;;;12.50;6.00;;;;;;;9.41;100.00;102220.06;5016952;28;20184;-73
2022/05/15 01:31:05;;;;;;;14.60;6.23;;;;;;;10.00;100.00;102311.34;5018024;28;20235;-72
2022/05/15 01:33:30;;;;;;;19.57;6.77;;;;;;;9.48;100.00;102255.09;5020915;28;20189;-72
2022/05/15 01:35:55;;;;;;;12.03;5.60;;;;;;;9.66;100.00;102296.09;5003935;28;20204;-72
2022/05/15 01:38:21;;;;;;;14.90;5.47;;;;;;;9.79;100.00;102310.91;5019499;28;20264;-73
2022/05/15 01:40:48;;;;;;;14.03;5.60;;;;;;;9.65;100.00;102297.06;5023067;28;20217;-72
2022/05/15 01:43:15;;;;;;;15.40;5.07;;;;;;;9.66;100.00;102316.66;5018032;28;20559;-73
2022/05/15 01:45:40;;;;;;;11.37;5.17;;;;;;;9.53;100.00;102317.06;5004496;28;20501;-72
2022/05/15 01:48:06;;;;;;;12.03;5.27;;;;;;;9.36;100.00;102237.59;5019470;28;21168;-72
2022/05/15 01:50:31;;;;;;;15.33;6.07;;;;;;;9.76;100.00;102309.38;5020896;28;20172;-73
2022/05/15 01:52:57;;;;;;;11.83;5.10;;;;;;;9.62;100.00;102293.88;5021766;28;20560;-72
2022/05/15 01:55:22;;;;;;;10.80;5.73;;;;;;;9.72;100.00;102295.47;5020604;28;20188;-72
2022/05/15 01:57:48;;;;;;;11.13;5.17;;;;;;;9.66;100.00;102311.28;5021980;28;20184;-73
2022/05/15 02:00:23;;;;;;;11.00;4.00;;;;;;;9.52;100.00;102320.75;5014232;28;20267;-72
2022/05/15 02:02:49;;;;;;;11.97;4.73;;;;;;;9.37;100.00;102315.09;5017478;28;20234;-72
2022/05/15 02:05:15;;;;;;;11.07;4.67;;;;;;;9.37;100.00;102319.63;5020593;28;20467;-73
2022/05/15 02:07:41;;;;;;;7.60;4.00;;;;;;;9.38;100.00;102326.66;5015963;28;20447;-72
2022/05/15 02:10:08;;;;;;;9.97;4.23;;;;;;;8.73;100.00;102219.84;5014454;28;20506;-73
2022/05/15 02:12:34;;;;;;;7.93;4.43;;;;;;;9.72;100.00;102322.25;5024750;28;20200;-72
2022/05/15 02:15:01;;;;;;;7.93;4.33;;;;;;;9.61;100.00;102279.63;5020814;28;20493;-72
2022/05/15 02:17:27;;;;;;;7.03;3.80;;;;;;;9.63;100.00;102319.66;5000532;28;20184;-72
2022/05/15 02:19:52;;;;;;;6.10;3.30;;;;;;;9.39;100.00;102304.25;5017627;28;20446;-73
2022/05/15 02:22:18;;;;;;;8.40;2.67;;;;;;;9.55;100.00;102312.41;5015208;28;20220;-73
2022/05/15 02:24:43;;;;;;;5.10;2.20;;;;;;;8.95;100.00;102261.38;5015073;28;20756;-73
2022/05/15 02:27:08;;;;;;;3.53;2.57;;;;;;;9.13;100.00;102275.56;5015842;28;20291;-73
2022/05/15 02:29:34;;;;;;;4.50;2.53;;;;;;;8.71;100.00;102221.88;5018408;28;20979;-73
2022/05/15 02:32:00;;;;;;;4.13;2.03;;;;;;;9.29;100.00;102288.28;5016946;28;20215;-72
2022/05/15 02:34:25;;;;;;;6.30;2.40;;;;;;;8.99;100.00;102260.91;5015509;28;20435;-73
2022/05/15 02:36:51;;;;;;;4.10;2.00;;;;;;;9.17;100.00;102321.63;5022129;28;20192;-73
2022/05/15 02:39:16;;;;;;;3.60;2.10;;;;;;;9.20;100.00;102327.53;5018511;28;20203;-72
2022/05/15 02:41:42;;;;;;;3.90;2.03;;;;;;;9.29;100.00;102323.09;5019468;28;20692;-72
2022/05/15 02:44:07;;;;;;;5.70;2.60;;;;;;;9.03;100.00;102325.69;5021585;28;20176;-73
2022/05/15 02:46:32;;;;;;;6.13;2.70;;;;;;;9.15;100.00;102328.97;5021002;28;20240;-73
2022/05/15 02:51:42;;;;;;;6.13;2.80;;;;;;;8.80;100.00;102283.31;5016591;28;20270;-73
2022/05/15 02:54:07;;;;;;;3.30;2.20;;;;;;;8.78;100.00;102296.00;5016667;28;20443;-73
2022/05/15 02:56:33;;;;;;;3.10;2.40;;;;;;;9.09;100.00;102318.88;5016672;28;20194;-72
2022/05/15 02:58:59;;;;;;;7.10;2.60;;;;;;;8.99;100.00;102337.66;5013538;28;20184;-72
2022/05/15 03:01:25;;;;;;;4.63;2.40;;;;;;;8.91;100.00;102351.81;5020023;28;21009;-73
2022/05/15 03:03:50;;;;;;;7.77;2.40;;;;;;;8.78;100.00;102337.97;5017623;28;20184;-73
2022/05/15 03:06:16;;;;;;;5.33;2.67;;;;;;;9.02;100.00;102334.69;5018023;28;20497;-73
2022/05/15 03:08:45;;;;;;;7.43;3.13;;;;;;;8.85;100.00;102335.50;5018100;28;20187;-72
2022/05/15 03:11:11;;;;;;;7.37;2.77;;;;;;;8.93;100.00;102338.28;5000229;28;20829;-73
2022/05/15 03:13:36;;;;;;;5.90;3.20;;;;;;;8.59;100.00;102275.56;5017680;28;20450;-73
2022/05/15 03:16:06;;;;;;;5.37;3.00;;;;;;;8.93;100.00;102335.59;5016443;28;20185;-73
2022/05/15 03:18:32;;;;;;;5.23;3.07;;;;;;;8.80;100.00;102342.16;5017553;28;20212;-73
2022/05/15 03:20:58;;;;;;;3.70;2.90;;;;;;;8.44;100.00;102271.69;5012640;28;20596;-73
2022/05/15 03:23:23;;;;;;;5.70;3.30;;;;;;;8.47;100.00;102271.41;4998601;28;21049;-73
2022/05/15 03:25:49;;;;;;;5.67;3.40;;;;;;;8.72;100.00;102334.03;5036766;23;20242;-73
2022/05/15 03:28:14;;;;;;;4.17;3.13;;;;;;;8.64;100.00;102336.63;5057064;28;20191;-72
2022/05/15 03:30:42;;;;;;;5.83;2.70;;;;;;;8.66;100.00;102350.69;5059329;28;20206;-73
2022/05/15 03:33:09;;;;;;;2.97;2.43;;;;;;;8.87;100.00;102347.75;5056879;28;20592;-72
2022/05/15 03:35:36;;;;;;;2.77;2.47;;;;;;;8.81;100.00;102343.84;5046966;28;21318;-72
2022/05/15 03:38:01;;;;;;;5.67;2.73;;;;;;;8.46;100.00;102309.84;5032998;28;20443;-70
2022/05/15 03:40:28;;;;;;;5.00;2.40;;;;;;;8.88;100.00;102354.81;5033887;28;20499;-70
2022/05/15 03:42:53;;;;;;;5.20;2.30;;;;;;;8.83;100.00;102352.56;5036738;28;20194;-70
2022/05/15 03:45:19;;;;;;;3.40;2.80;;;;;;;8.62;100.00;102327.94;5031863;28;20953;-70
2022/05/15 03:47:47;;;;;;;2.57;1.90;;;;;;;8.50;100.00;102259.56;5037541;28;20261;-70
2022/05/15 03:50:13;;;;;;;3.53;1.90;;;;;;;8.23;100.00;102239.84;5039870;28;20441;-70
2022/05/15 03:52:39;;;;;;;5.13;2.33;;;;;;;8.69;100.00;102283.53;5037301;28;20458;-69
2022/05/15 03:55:05;;;;;;;5.83;2.47;;;;;;;8.58;100.00;102287.25;5037397;28;20433;-69
2022/05/15 03:57:30;;;;;;;3.20;2.17;;;;;;;8.53;100.00;102316.28;5036815;28;20212;-70
2022/05/15 03:59:56;;;;;;;3.80;2.47;;;;;;;8.29;100.00;102279.34;5035810;28;20575;-69
2022/05/15 04:02:22;;;;;;;3.00;1.97;;;;;;;8.55;100.00;102341.03;5038691;28;20237;-70
2022/05/15 04:04:47;;;;;;;3.23;2.23;;;;;;;8.72;100.00;102326.03;5037767;28;20262;-70
2022/05/15 04:07:12;;;;;;;3.67;2.43;;;;;;;8.88;100.00;102356.63;5035876;28;20207;-70
2022/05/15 04:09:40;;;;;;;4.10;2.67;;;;;;;8.01;100.00;102318.56;5034229;28;20556;-69
2022/05/15 04:12:10;;;;;;;3.40;2.60;;;;;;;8.46;100.00;102343.75;5037161;28;20213;-70
2022/05/15 04:14:36;;;;;;;3.23;2.70;;;;;;;8.39;100.00;102319.47;5037915;28;20442;-70
2022/05/15 04:17:01;;;;;;;2.43;2.13;;;;;;;8.58;100.00;102335.38;5036618;28;20984;-70
2022/05/15 04:19:27;;;;;;;3.30;1.93;;;;;;;8.66;100.00;102333.81;5039459;28;20211;-70
2022/05/15 04:21:52;;;;;;;3.70;2.00;;;;;;;8.53;100.00;102316.28;5032408;28;24933;-69
2022/05/15 04:24:19;;;;;;;2.67;1.70;;;;;;;8.46;100.00;102320.53;5037979;28;20566;-70
2022/05/15 04:26:49;;;;;;;2.53;1.90;;;;;;;8.37;100.00;102330.25;5036240;28;20242;-70
2022/05/15 04:29:14;;;;;;;2.20;2.00;;;;;;;8.82;100.00;102363.41;5036360;28;20922;-70
2022/05/15 04:31:40;;;;;;;2.33;1.77;;;;;;;8.88;100.00;102345.91;5038246;28;20446;-70
2022/05/15 04:34:05;;;;;;;2.60;2.10;;;;;;;9.27;100.00;102354.50;5037050;28;20188;-70
2022/05/15 04:36:32;;;;;;;3.20;1.80;;;;;;;9.04;100.00;102327.34;5037858;28;20219;-70
2022/05/15 04:38:57;;;;;;;2.97;1.40;;;;;;;9.19;100.00;102357.94;5040301;28;20196;-70
2022/05/15 04:41:23;;;;;;;3.23;1.93;;;;;;;9.05;100.00;102361.16;5039541;28;20817;-70
2022/05/15 04:43:49;;;;;;;2.23;1.60;;;;;;;8.70;100.00;102293.22;5038383;28;20244;-70
2022/05/15 04:46:15;;;;;;;2.37;1.60;;;;;;;9.17;100.00;102335.00;5038118;28;20211;-70
2022/05/15 04:48:41;;;;;;;2.20;1.50;;;;;;;8.59;100.00;102253.31;5035557;28;20188;-70
2022/05/15 04:51:06;;;;;;;1.40;1.30;;;;;;;8.93;100.00;102292.78;5035041;28;20452;-70
2022/05/15 04:53:31;;;;;;;1.87;1.37;;;;;;;9.17;100.00;102340.34;5037138;28;20188;-70
2022/05/15 04:55:59;;;;;;;3.20;1.70;;;;;;;9.33;100.00;102369.97;5029539;28;20220;-70
2022/05/15 04:58:25;;;;;;;2.83;1.20;;;;;;;9.14;100.00;102373.66;5035474;28;20215;-70
2022/05/15 05:00:50;;;;;;;2.93;1.60;;;;;;;8.85;100.00;102316.78;5036148;28;20469;-70
2022/05/15 05:03:16;;;;;;;1.40;1.30;;;;;;;9.44;100.00;102315.34;5034401;28;21080;-70
2022/05/15 05:05:42;;;;;;;2.30;1.83;;;;;;;9.68;100.00;102350.34;5039621;28;20211;-70
2022/05/15 05:08:09;;;;;;;2.40;1.60;;;;;;;9.47;100.00;102342.66;5035565;28;20249;-70
2022/05/15 05:10:35;;;;;;;2.60;1.40;;;;;;;9.20;100.00;102361.47;5036620;28;20196;-70
2022/05/15 05:13:00;;;;;;;2.23;1.40;;;;;;;9.36;100.00;102358.13;5036892;28;20446;-70
2022/05/15 05:15:25;;;;;;;1.50;1.20;;;;;;;8.75;100.00;102255.31;5034020;28;20453;-69
2022/05/15 05:17:51;;;;;;;2.37;1.20;;;;;;;9.26;100.00;102332.25;5040662;28;20208;-70
2022/05/15 05:20:16;;;;;;;2.00;1.57;;;;;;;9.73;100.00;102366.78;5038133;28;20273;-70
2022/05/15 05:22:42;;;;;;;3.20;1.50;;;;;;;9.31;100.00;102314.88;5036172;28;20199;-70
2022/05/15 05:25:08;;;;;;;3.00;1.60;;;;;;;9.08;100.00;102285.06;5036538;28;20207;-70
2022/05/15 05:27:36;;;;;;;5.10;1.37;;;;;;;9.54;100.00;102325.94;5036596;28;20238;-70
2022/05/15 05:30:02;;;;;;;2.70;1.80;;;;;;;9.87;100.00;102365.41;5039425;28;20449;-70
2022/05/15 05:32:27;;;;;;;3.00;1.40;;;;;;;9.53;100.00;102330.47;5036431;28;20496;-70
2022/05/15 05:34:53;;;;;;;4.10;2.33;;;;;;;9.85;100.00;102332.53;5035194;28;20548;-70
2022/05/15 05:37:18;;;;;;;4.40;2.03;;;;;;;9.79;100.00;102351.09;5035011;28;20477;-70
2022/05/15 05:39:44;;;;;;;5.13;2.20;;;;;;;9.30;100.00;102267.69;5038443;28;20180;-70
2022/05/15 05:42:10;;;;;;;4.43;2.37;;;;;;;9.59;100.00;102299.53;5040749;28;20397;-70
2022/05/15 05:44:36;;;;;;;4.90;2.67;;;;;;;9.85;100.00;102324.50;5045105;28;21562;-69
2022/05/15 05:47:01;;;;;;;5.17;2.77;;;;;;;10.05;100.00;102338.53;5035256;28;20639;-70
2022/05/15 05:49:26;;;;;;;5.40;2.83;;;;;;;9.81;100.00;102279.44;5038431;28;20199;-69
2022/05/15 05:51:52;;;;;;;5.03;2.73;;;;;;;10.40;100.00;102334.88;5036725;28;21056;-70
2022/05/15 05:54:17;;;;;;;7.80;3.10;;;;;;;10.58;100.00;102371.50;5040319;28;20191;-70
2022/05/15 05:56:42;;;;;;;5.73;2.83;;;;;;;10.68;100.00;102379.44;5034839;28;20636;-70
2022/05/15 05:59:08;;;;;;;9.30;3.70;;;;;;;10.89;100.00;102382.53;5035261;28;20199;-70
2022/05/15 06:01:33;;;;;;;11.23;3.50;;;;;;;10.60;100.00;102324.72;5035054;28;20188;-70
2022/05/15 06:06:43;;;;;;;16.60;4.00;;;;;;;10.98;100.00;102352.00;5033247;28;20324;-70
2022/05/15 06:09:08;;;;;;;11.27;4.87;;;;;;;11.02;100.00;102348.00;5033004;28;20470;-70
2022/05/15 06:11:34;;;;;;;9.80;4.53;;;;;;;10.82;100.00;102322.47;5036956;28;20477;-70
2022/05/15 06:13:59;;;;;;;11.97;5.40;;;;;;;10.74;100.00;102280.34;5035103;28;20267;-70
2022/05/15 06:16:25;;;;;;;11.97;5.20;;;;;;;11.54;100.00;102396.09;5030494;28;20203;-70
2022/05/15 06:18:51;;;;;;;12.53;4.93;;;;;;;11.61;100.00;102387.34;5033539;28;20188;-70
2022/05/15 06:21:16;;;;;;;14.97;5.30;;;;;;;11.48;100.00;102360.97;5038646;28;20512;-70
2022/05/15 06:23:42;;;;;;;15.57;5.57;;;;;;;11.85;100.00;102392.75;5037030;28;20223;-70
2022/05/15 06:26:07;;;;;;;8.97;5.13;;;;;;;11.81;100.00;102364.50;5035499;28;20226;-70
2022/05/15 06:28:34;;;;;;;18.27;6.27;;;;;;;11.79;100.00;102388.00;5041340;28;20849;-70
2022/05/15 06:31:00;;;;;;;17.20;5.90;;;;;;;11.98;100.00;102393.06;5038715;28;20188;-69
2022/05/15 06:33:26;;;;;;;17.53;5.77;;;;;;;12.03;100.00;102389.03;5040904;28;20872;-70
2022/05/15 06:35:51;;;;;;;15.40;5.70;;;;;;;12.01;100.00;102339.97;5036120;28;20463;-70
2022/05/15 06:38:17;;;;;;;16.30;5.80;;;;;;;12.13;100.00;102362.78;5042898;28;20210;-70
2022/05/15 06:40:42;;;;;;;13.53;6.10;;;;;;;11.89;100.00;102297.31;5049376;28;20278;-69
2022/05/15 06:43:09;;;;;;;19.13;6.50;;;;;;;12.53;100.00;102379.84;5037874;28;20246;-70
2022/05/15 06:45:35;;;;;;;15.40;5.70;;;;;;;12.61;100.00;102379.78;5035680;28;20251;-69
2022/05/15 06:48:01;;;;;;;16.93;6.37;;;;;;;12.35;100.00;102313.63;5035138;28;20475;-70
2022/05/15 06:50:26;;;;;;;14.87;5.33;;;;;;;12.73;100.00;102383.78;5030913;28;20797;-70
2022/05/15 06:52:52;;;;;;;17.40;6.03;;;;;;;12.40;100.00;102319.31;5034210;28;20187;-69
2022/05/15 06:55:20;;;;;;;16.47;5.23;;;;;;;12.36;100.00;102336.81;5034502;28;20274;-71
2022/05/15 06:57:50;;;;;;;15.60;5.53;;;;;;;12.88;100.00;102381.19;5035533;28;20183;-72
2022/05/15 07:00:22;;;;;;;13.90;5.50;;;;;;;13.01;100.00;102389.50;5036686;28;20434;-71
2022/05/15 07:02:48;;;;;;;17.77;6.20;;;;;;;12.96;100.00;102383.84;5031249;28;20446;-72
2022/05/15 07:05:22;;;;;;;15.67;5.70;;;;;;;12.85;100.00;102366.22;5029273;28;20474;-71
2022/05/15 07:07:48;;;;;;;13.77;6.23;;;;;;;12.87;100.00;102358.81;5032053;28;20430;-72
2022/05/15 07:10:14;;;;;;;12.57;5.63;;;;;;;12.97;100.00;102331.63;5032044;28;20520;-71
2022/05/15 07:12:39;;;;;;;11.60;4.67;;;;;;;13.16;100.00;102384.19;5032311;28;20192;-72
2022/05/15 07:17:43;;;;;;;11.03;4.53;;;;;;;13.16;100.00;102384.19;5630963;23;20675;-74
2022/05/15 07:20:09;;;;;;;15.10;4.97;;;;;;;12.51;100.00;102288.47;5008787;28;20437;-75
2022/05/15 07:22:35;;;;;;;13.93;5.17;;;;;;;12.50;100.00;102250.97;5016958;28;20439;-74
2022/05/15 07:25:01;;;;;;;20.37;6.20;;;;;;;13.45;100.00;102363.81;5024435;28;20553;-78
2022/05/15 07:27:26;;;;;;;14.40;5.67;;;;;;;13.55;100.00;102364.41;5025110;28;20555;-78
2022/05/15 07:29:52;;;;;;;14.07;4.80;;;;;;;13.33;100.00;102328.38;5028164;28;20438;-78
2022/05/15 07:32:17;;;;;;;10.60;4.93;;;;;;;13.65;100.00;102345.28;5022901;23;20229;-75
2022/05/15 07:34:43;;;;;;;12.77;4.53;;;;;;;13.70;100.00;102335.63;5005880;28;20225;-73
2022/05/15 07:37:09;;;;;;;12.17;5.00;;;;;;;13.87;100.00;102365.16;4999572;28;20213;-77
2022/05/15 07:39:34;;;;;;;13.63;4.33;;;;;;;13.42;100.00;102316.50;5007048;28;20236;-76
2022/05/15 07:42:00;;;;;;;14.13;4.10;;;;;;;13.87;100.00;102352.50;5002030;28;20506;-76
2022/05/15 07:44:25;;;;;;;13.67;3.90;;;;;;;13.92;100.00;102360.03;5000285;28;20303;-77
2022/05/15 07:46:51;;;;;;;16.83;4.60;;;;;;;13.88;100.00;102340.66;5003255;28;20224;-76
2022/05/15 07:49:19;;;;;;;12.30;3.50;;;;;;;14.01;100.00;102359.78;4999504;28;20209;-77
2022/05/15 07:51:48;;;;;;;9.53;3.73;;;;;;;13.55;100.00;102286.25;5006292;28;20211;-76
2022/05/15 07:54:16;;;;;;;14.17;4.37;;;;;;;13.92;100.00;102306.94;5006501;28;20452;-76
2022/05/15 07:56:42;;;;;;;9.83;3.80;;;;;;;13.99;100.00;102320.50;5003040;28;20440;-76
2022/05/15 07:59:07;;;;;;;17.20;4.30;;;;;;;14.19;100.00;102351.31;4998453;28;20459;-75
2022/05/15 08:01:33;;;;;;;8.63;3.60;;;;;;;14.09;100.00;102315.69;4999131;28;20205;-74
2022/05/15 08:03:58;;;;;;;11.93;3.43;;;;;;;13.91;100.00;102272.03;5001409;28;20189;-74
2022/05/15 08:09:08;;;;;;;9.80;3.53;;;;;;;14.49;100.00;102337.78;4998281;28;20191;-74
2022/05/15 08:11:36;;;;;;;10.70;3.77;;;;;;;14.41;100.00;102333.34;4990884;28;20964;-72
2022/05/15 08:14:04;;;;;;;8.93;3.70;;;;;;;14.04;100.00;102253.34;4998412;28;20474;-73
2022/05/15 08:16:31;;;;;;;9.70;3.93;;;;;;;14.59;100.00;102330.28;4996346;28;20439;-74
2022/05/15 08:24:45;;;;;;;8.07;3.17;;;;;;;14.67;100.00;102303.16;4941123;28;21278;-73
2022/05/15 08:27:11;;;;;;;10.40;2.43;;;;;;;14.28;100.00;102272.94;4941306;28;20450;-73
2022/05/15 08:29:38;;;;;;;3.60;1.70;;;;;;;14.63;100.00;102293.75;4962226;28;20209;-73
2022/05/15 08:32:04;;;;;;;5.10;2.27;;;;;;;14.71;100.00;102306.31;4999683;28;20463;-73
2022/05/15 08:34:30;;;;;;;6.33;2.17;;;;;;;14.83;100.00;102318.28;4990732;28;20795;-73
2022/05/15 08:36:55;;;;;;;6.27;2.60;;;;;;;14.43;100.00;102234.09;5001309;28;20479;-73
2022/05/15 08:39:21;;;;;;;3.90;2.40;;;;;;;14.20;100.00;102191.09;4997998;28;20534;-74
2022/05/15 08:41:55;;;;;;;4.60;1.83;;;;;;;15.03;100.00;102321.22;4993993;28;20457;-73
2022/05/15 08:44:26;;;;;;;7.60;1.97;;;;;;;15.02;100.00;102316.84;5000907;28;20211;-74
2022/05/15 08:46:51;;;;;;;7.43;2.17;;;;;;;15.17;100.00;102313.25;4992639;28;20475;-74
2022/05/15 08:49:26;;;;;;;6.03;1.97;;;;;;;15.31;100.00;102312.34;4997667;28;20527;-73
2022/05/15 08:52:13;;;;;;;5.20;1.80;;;;;;;15.40;100.00;102310.34;5003013;28;20223;-73
2022/05/15 08:54:54;;;;;;;8.60;2.20;;;;;;;15.47;100.00;102303.09;5001782;28;20436;-74
2022/05/15 08:57:29;;;;;;;5.37;2.13;;;;;;;15.26;100.00;102261.53;5000005;28;20436;-74
2022/05/15 08:59:58;;;;;;;7.97;2.10;;;;;;;15.48;100.00;102308.31;5005707;28;20789;-73
2022/05/15 09:02:25;;;;;;;4.40;1.90;;;;;;;15.51;100.00;102307.09;5006071;28;20469;-74
2022/05/15 09:04:52;;;;;;;8.50;1.90;;;;;;;15.27;100.00;102251.56;5002321;28;20982;-74
2022/05/15 09:07:30;;;;;;;5.70;2.33;;;;;;;15.68;100.00;102303.09;4999714;28;20447;-74
2022/05/15 09:10:08;;;;;;;6.10;2.00;;;;;;;15.60;100.00;102306.75;5002943;28;21232;-73
2022/05/15 09:12:36;;;;;;;5.53;1.97;;;;;;;15.20;100.00;102240.72;5003355;28;20550;-74
2022/05/15 09:15:22;;;;;;;6.50;2.27;;;;;;;15.47;100.00;102276.88;5001712;28;20443;-73
2022/05/15 09:18:00;;;;;;;5.57;2.10;;;;;;;15.71;100.00;102296.47;4999780;28;20458;-73
2022/05/15 09:20:26;;;;;;;5.80;2.30;;;;;;;15.76;100.00;102313.75;5000808;28;20450;-73
2022/05/15 09:23:14;;;;;;;5.00;2.00;;;;;;;15.42;100.00;102219.88;4998620;28;20475;-72
2022/05/15 09:25:39;;;;;;;7.40;1.87;;;;;;;15.80;100.00;102288.00;4998056;28;20235;-73
2022/05/15 09:28:08;;;;;;;3.53;1.50;;;;;;;15.47;100.00;102232.78;5006284;28;20923;-72
2022/05/15 09:30:36;;;;;;;5.37;1.97;;;;;;;15.99;100.00;102305.38;5006966;28;20196;-73
2022/05/15 09:33:02;;;;;;;3.10;1.60;;;;;;;16.10;100.00;102305.84;5006411;28;20428;-73
2022/05/15 09:35:41;;;;;;;4.33;1.90;;;;;;;15.98;100.00;102302.88;5005395;28;20446;-72
2022/05/15 09:43:56;;;;;;;3.30;1.57;;;;;;;16.14;100.00;102277.34;5006904;28;20894;-73
2022/05/15 09:46:25;;;;;;;4.83;1.80;;;;;;;16.40;100.00;102291.03;5003326;28;20537;-72
2022/05/15 09:48:53;;;;;;;4.73;1.40;;;;;;;16.52;100.00;102298.53;5002759;28;20817;-72
2022/05/15 09:51:52;;;;;;;2.53;1.43;;;;;;;16.31;100.00;102275.97;5000700;28;20460;-71
2022/05/15 09:54:33;;;;;;;3.80;1.60;;;;;;;16.48;100.00;102298.13;4998941;28;20440;-74
2022/05/15 09:57:19;;;;;;;3.60;1.73;;;;;;;16.44;100.00;102286.03;4994731;28;20517;-73
2022/05/15 10:00:07;;;;;;;6.00;1.77;;;;;;;16.63;100.00;102281.69;5001093;28;20452;-75
2022/05/15 10:02:43;;;;;;;4.60;1.40;;;;;;;16.67;100.00;102281.09;4997879;28;20466;-72
2022/05/15 10:05:14;;;;;;;4.90;2.00;;;;;;;17.07;100.00;102283.94;4999263;28;20459;-75
2022/05/15 10:07:44;;;;;;;5.40;1.90;;;;;;;16.63;100.00;102217.50;4999504;28;20436;-75
2022/05/15 10:10:17;;;;;;;8.00;2.10;;;;;;;17.21;100.00;102276.63;5002508;28;20448;-74
2022/05/15 10:12:46;;;;;;;7.23;3.33;;;;;;;16.87;100.00;102235.13;4998462;28;20953;-72
2022/05/15 10:15:13;;;;;;;5.50;2.60;;;;;;;17.09;100.00;102259.31;5001616;28;20439;-73
2022/05/15 10:17:46;;;;;;;11.10;3.30;;;;;;;17.34;100.00;102275.81;5005087;28;20420;-75
2022/05/15 10:20:35;;;;;;;6.43;2.60;;;;;;;16.94;100.00;102235.13;5003077;28;21039;-74
2022/05/15 10:23:09;;;;;;;6.50;2.00;;;;;;;17.29;100.00;102281.00;5004295;28;20452;-77
2022/05/15 10:25:59;;;;;;;4.73;1.93;;;;;;;17.55;100.00;102272.03;5004767;28;20464;-75
2022/05/15 10:28:27;;;;;;;7.57;2.80;;;;;;;17.54;100.00;102276.63;5004719;28;20948;-76
2022/05/15 10:31:03;;;;;;;4.47;1.80;;;;;;;17.59;100.00;102278.72;5002180;28;20448;-77
2022/05/15 10:33:35;;;;;;;12.47;2.60;;;;;;;17.74;100.00;102260.31;4998224;28;20494;-73
2022/05/15 10:36:17;;;;;;;5.67;2.07;;;;;;;17.71;100.00;102270.75;4999709;28;20935;-72
2022/05/15 10:38:48;;;;;;;11.03;3.00;;;;;;;17.63;100.00;102272.63;5002638;28;20440;-72
2022/05/15 10:41:31;;;;;;;6.77;2.50;;;;;;;17.29;100.00;102248.47;4995182;28;20470;-72
2022/05/15 10:44:19;;;;;;;5.03;2.37;;;;;;;17.35;100.00;102229.47;5001048;28;20435;-72
2022/05/15 10:46:52;;;;;;;6.93;2.80;;;;;;;17.75;100.00;102272.81;4998400;28;20877;-70
2022/05/15 10:49:39;;;;;;;4.97;2.57;;;;;;;17.81;100.00;102261.16;5003225;28;20444;-72
2022/05/15 10:52:27;;;;;;;7.30;2.10;;;;;;;17.76;100.00;102247.38;5000822;28;20470;-72
2022/05/15 10:58:27;;;;;;;4.70;1.57;;;;;;;18.13;100.00;102242.25;4991254;28;20950;-70
2022/05/15 11:00:58;;;;;;;17.30;3.87;;;;;;;18.05;100.00;102239.78;4993944;28;20526;-70
2022/05/15 11:03:51;;;;;;;13.80;2.47;;;;;;;18.22;100.00;102242.84;4989245;28;20958;-70
2022/05/15 11:06:17;;;;;;;7.37;2.17;;;;;;;18.39;100.00;102241.31;4994791;28;21164;-68
2022/05/15 11:08:55;;;;;;;6.73;2.30;;;;;;;18.18;100.00;102206.31;4996097;28;20987;-69
2022/05/15 11:11:32;;;;;;;4.13;1.50;;;;;;;17.99;100.00;102203.50;4997698;28;20545;-68
2022/05/15 11:14:12;;;;;;;1.93;1.40;;;;;;;18.09;100.00;102203.03;4995256;28;20444;-69
2022/05/15 11:16:56;;;;;;;4.07;1.60;;;;;;;18.42;100.00;102227.28;4999249;28;20432;-69
2022/05/15 11:19:44;;;;;;;4.00;2.03;;;;;;;18.69;100.00;102219.00;4989504;28;20526;-68
2022/05/15 11:22:19;;;;;;;5.60;1.60;;;;;;;18.81;100.00;102211.00;4999358;28;20475;-68
2022/05/15 11:24:57;;;;;;;4.40;1.80;;;;;;;18.87;100.00;102202.78;5003265;28;20427;-68
2022/05/15 11:27:38;;;;;;;4.50;1.40;;;;;;;18.80;100.00;102207.44;5000816;28;20439;-68
2022/05/15 11:30:16;;;;;;;4.77;1.90;;;;;;;18.75;100.00;102174.66;5002976;28;20448;-68
2022/05/15 11:32:44;;;;;;;3.20;1.73;;;;;;;18.97;100.00;102188.69;5002763;28;20467;-68
2022/05/15 11:35:13;;;;;;;5.83;2.07;;;;;;;19.01;100.00;102189.94;5003765;28;20444;-68
2022/05/15 11:37:38;;;;;;;6.20;2.17;;;;;;;18.88;100.00;102184.59;5005170;28;20554;-68
2022/05/15 11:40:10;;;;;;;2.20;1.37;;;;;;;19.13;100.00;102179.97;5004013;28;20515;-68
2022/05/15 11:42:35;;;;;;;5.13;1.80;;;;;;;19.14;100.00;102170.75;5003946;28;20209;-68
2022/05/15 11:45:29;;;;;;;4.60;1.70;;;;;;;19.38;100.00;102179.09;5003582;28;20507;-68
2022/05/15 11:47:58;;;;;;;2.20;1.53;;;;;;;19.32;100.00;102171.84;5005087;28;20177;-68
2022/05/15 11:50:51;;;;;;;2.13;1.23;;;;;;;19.58;100.00;102162.56;5004521;28;20427;-68